sensor_id;sensor_type;location;lat;lon;timestamp;P1;durP1;ratioP1;P2;durP2;ratioP2
29030;SDS011;16122;50.236;11.734;2023-08-06T00:00:26;3.20;;;2.90;;
29030;SDS011;16122;50.236;11.734;2023-08-06T00:02:52;3.47;;;3.17;;
29030;SDS011;16122;50.236;11.734;2023-08-06T00:05:18;6.30;;;3.40;;
29030;SDS011;16122;50.236;11.734;2023-08-06T00:07:46;3.87;;;3.30;;
29030;SDS011;16122;50.236;11.734;2023-08-06T00:10:12;3.53;;;3.20;;
29030;SDS011;16122;50.236;11.734;2023-08-06T00:12:38;3.47;;;3.13;;
29030;SDS011;16122;50.236;11.734;2023-08-06T00:15:04;3.20;;;2.90;;
29030;SDS011;16122;50.236;11.734;2023-08-06T00:17:30;3.23;;;2.93;;
29030;SDS011;16122;50.236;11.734;2023-08-06T00:19:56;3.67;;;2.80;;
29030;SDS011;16122;50.236;11.734;2023-08-06T00:22:21;2.60;;;2.40;;
29030;SDS011;16122;50.236;11.734;2023-08-06T00:24:47;4.43;;;3.03;;
29030;SDS011;16122;50.236;11.734;2023-08-06T00:27:13;5.10;;;3.10;;
29030;SDS011;16122;50.236;11.734;2023-08-06T00:29:39;3.50;;;3.13;;
29030;SDS011;16122;50.236;11.734;2023-08-06T00:32:05;2.40;;;2.20;;
29030;SDS011;16122;50.236;11.734;2023-08-06T00:34:30;2.90;;;2.50;;
29030;SDS011;16122;50.236;11.734;2023-08-06T00:36:56;4.07;;;2.80;;
29030;SDS011;16122;50.236;11.734;2023-08-06T00:39:22;7.10;;;2.90;;
29030;SDS011;16122;50.236;11.734;2023-08-06T00:41:48;2.83;;;2.63;;
29030;SDS011;16122;50.236;11.734;2023-08-06T00:44:14;2.47;;;2.27;;
29030;SDS011;16122;50.236;11.734;2023-08-06T00:46:40;4.47;;;2.57;;
29030;SDS011;16122;50.236;11.734;2023-08-06T00:49:06;3.07;;;2.73;;
29030;SDS011;16122;50.236;11.734;2023-08-06T00:51:33;3.50;;;2.77;;
29030;SDS011;16122;50.236;11.734;2023-08-06T00:54:01;3.37;;;2.53;;
29030;SDS011;16122;50.236;11.734;2023-08-06T00:56:27;4.10;;;2.50;;
29030;SDS011;16122;50.236;11.734;2023-08-06T00:58:54;2.73;;;2.53;;
29030;SDS011;16122;50.236;11.734;2023-08-06T01:01:20;2.60;;;2.30;;
29030;SDS011;16122;50.236;11.734;2023-08-06T01:03:46;2.73;;;2.63;;
29030;SDS011;16122;50.236;11.734;2023-08-06T01:06:11;3.30;;;2.67;;
29030;SDS011;16122;50.236;11.734;2023-08-06T01:08:47;2.53;;;2.30;;
29030;SDS011;16122;50.236;11.734;2023-08-06T01:14:22;2.90;;;2.30;;
29030;SDS011;16122;50.236;11.734;2023-08-06T01:16:56;3.10;;;2.50;;
29030;SDS011;16122;50.236;11.734;2023-08-06T01:19:23;2.57;;;2.37;;
29030;SDS011;16122;50.236;11.734;2023-08-06T01:21:50;2.70;;;2.50;;
29030;SDS011;16122;50.236;11.734;2023-08-06T01:24:16;2.37;;;2.17;;
29030;SDS011;16122;50.236;11.734;2023-08-06T01:26:43;3.23;;;3.03;;
29030;SDS011;16122;50.236;11.734;2023-08-06T01:31:43;2.47;;;2.27;;
29030;SDS011;16122;50.236;11.734;2023-08-06T01:34:22;2.40;;;2.17;;
29030;SDS011;16122;50.236;11.734;2023-08-06T01:36:51;2.77;;;2.57;;
29030;SDS011;16122;50.236;11.734;2023-08-06T01:39:17;2.97;;;2.40;;
29030;SDS011;16122;50.236;11.734;2023-08-06T01:41:46;2.47;;;2.27;;
29030;SDS011;16122;50.236;11.734;2023-08-06T01:44:13;3.40;;;2.47;;
29030;SDS011;16122;50.236;11.734;2023-08-06T01:46:39;2.80;;;2.50;;
29030;SDS011;16122;50.236;11.734;2023-08-06T01:49:06;2.30;;;2.10;;
29030;SDS011;16122;50.236;11.734;2023-08-06T01:51:32;2.73;;;2.47;;
29030;SDS011;16122;50.236;11.734;2023-08-06T01:53:58;2.40;;;2.20;;
29030;SDS011;16122;50.236;11.734;2023-08-06T01:56:24;2.20;;;2.10;;
29030;SDS011;16122;50.236;11.734;2023-08-06T01:58:50;2.50;;;2.30;;
29030;SDS011;16122;50.236;11.734;2023-08-06T02:01:16;2.43;;;2.13;;
29030;SDS011;16122;50.236;11.734;2023-08-06T02:03:42;2.47;;;2.27;;
29030;SDS011;16122;50.236;11.734;2023-08-06T02:06:09;2.47;;;2.10;;
29030;SDS011;16122;50.236;11.734;2023-08-06T02:08:35;2.40;;;2.20;;
29030;SDS011;16122;50.236;11.734;2023-08-06T02:11:01;2.43;;;2.23;;
29030;SDS011;16122;50.236;11.734;2023-08-06T02:13:29;2.40;;;2.20;;
29030;SDS011;16122;50.236;11.734;2023-08-06T02:15:55;2.57;;;2.37;;
29030;SDS011;16122;50.236;11.734;2023-08-06T02:18:21;2.40;;;2.20;;
29030;SDS011;16122;50.236;11.734;2023-08-06T02:20:56;2.20;;;2.00;;
29030;SDS011;16122;50.236;11.734;2023-08-06T02:23:23;2.43;;;2.23;;
29030;SDS011;16122;50.236;11.734;2023-08-06T02:25:56;1.90;;;1.80;;
29030;SDS011;16122;50.236;11.734;2023-08-06T02:28:31;2.40;;;1.93;;
29030;SDS011;16122;50.236;11.734;2023-08-06T02:30:58;2.90;;;2.20;;
29030;SDS011;16122;50.236;11.734;2023-08-06T02:33:24;2.50;;;2.30;;
29030;SDS011;16122;50.236;11.734;2023-08-06T02:35:49;2.40;;;2.20;;
29030;SDS011;16122;50.236;11.734;2023-08-06T02:38:15;1.80;;;1.70;;
29030;SDS011;16122;50.236;11.734;2023-08-06T02:40:44;2.53;;;2.33;;
29030;SDS011;16122;50.236;11.734;2023-08-06T02:43:12;3.37;;;2.20;;
29030;SDS011;16122;50.236;11.734;2023-08-06T02:45:38;1.80;;;1.70;;
29030;SDS011;16122;50.236;11.734;2023-08-06T02:48:05;2.23;;;2.00;;
29030;SDS011;16122;50.236;11.734;2023-08-06T02:50:31;1.93;;;1.83;;
29030;SDS011;16122;50.236;11.734;2023-08-06T02:53:02;2.23;;;2.00;;
29030;SDS011;16122;50.236;11.734;2023-08-06T02:55:28;2.73;;;2.53;;
29030;SDS011;16122;50.236;11.734;2023-08-06T02:57:54;1.83;;;1.73;;
29030;SDS011;16122;50.236;11.734;2023-08-06T03:00:20;2.23;;;2.03;;
29030;SDS011;16122;50.236;11.734;2023-08-06T03:02:46;1.97;;;1.87;;
29030;SDS011;16122;50.236;11.734;2023-08-06T03:05:24;2.37;;;2.17;;
29030;SDS011;16122;50.236;11.734;2023-08-06T03:07:50;2.50;;;1.90;;
29030;SDS011;16122;50.236;11.734;2023-08-06T03:10:26;3.40;;;1.87;;
29030;SDS011;16122;50.236;11.734;2023-08-06T03:12:55;3.40;;;2.40;;
29030;SDS011;16122;50.236;11.734;2023-08-06T03:15:22;2.47;;;2.27;;
29030;SDS011;16122;50.236;11.734;2023-08-06T03:17:49;2.33;;;1.93;;
29030;SDS011;16122;50.236;11.734;2023-08-06T03:20:18;2.20;;;2.00;;
29030;SDS011;16122;50.236;11.734;2023-08-06T03:22:44;2.20;;;2.10;;
29030;SDS011;16122;50.236;11.734;2023-08-06T03:25:10;1.73;;;1.63;;
29030;SDS011;16122;50.236;11.734;2023-08-06T03:27:36;2.13;;;1.90;;
29030;SDS011;16122;50.236;11.734;2023-08-06T03:30:02;2.30;;;2.10;;
29030;SDS011;16122;50.236;11.734;2023-08-06T03:32:29;1.90;;;1.80;;
29030;SDS011;16122;50.236;11.734;2023-08-06T03:34:55;2.00;;;1.80;;
29030;SDS011;16122;50.236;11.734;2023-08-06T03:37:23;2.10;;;2.00;;
29030;SDS011;16122;50.236;11.734;2023-08-06T03:39:50;1.80;;;1.70;;
29030;SDS011;16122;50.236;11.734;2023-08-06T03:42:16;1.97;;;1.87;;
29030;SDS011;16122;50.236;11.734;2023-08-06T03:44:42;1.87;;;1.77;;
29030;SDS011;16122;50.236;11.734;2023-08-06T03:47:09;1.90;;;1.80;;
29030;SDS011;16122;50.236;11.734;2023-08-06T03:49:35;1.80;;;1.70;;
29030;SDS011;16122;50.236;11.734;2023-08-06T03:52:02;2.10;;;2.00;;
29030;SDS011;16122;50.236;11.734;2023-08-06T03:54:28;2.20;;;2.00;;
29030;SDS011;16122;50.236;11.734;2023-08-06T03:56:55;1.93;;;1.83;;
29030;SDS011;16122;50.236;11.734;2023-08-06T03:59:21;1.80;;;1.70;;
29030;SDS011;16122;50.236;11.734;2023-08-06T04:01:47;1.70;;;1.60;;
29030;SDS011;16122;50.236;11.734;2023-08-06T04:04:13;1.77;;;1.67;;
29030;SDS011;16122;50.236;11.734;2023-08-06T04:06:39;1.87;;;1.77;;
29030;SDS011;16122;50.236;11.734;2023-08-06T04:09:05;2.90;;;2.13;;
29030;SDS011;16122;50.236;11.734;2023-08-06T04:11:30;1.90;;;1.80;;
29030;SDS011;16122;50.236;11.734;2023-08-06T04:13:56;1.77;;;1.67;;
29030;SDS011;16122;50.236;11.734;2023-08-06T04:16:23;1.57;;;1.47;;
29030;SDS011;16122;50.236;11.734;2023-08-06T04:18:51;1.83;;;1.70;;
29030;SDS011;16122;50.236;11.734;2023-08-06T04:21:18;1.93;;;1.83;;
29030;SDS011;16122;50.236;11.734;2023-08-06T04:23:45;1.83;;;1.67;;
29030;SDS011;16122;50.236;11.734;2023-08-06T04:26:12;1.93;;;1.80;;
29030;SDS011;16122;50.236;11.734;2023-08-06T04:28:38;1.70;;;1.60;;
29030;SDS011;16122;50.236;11.734;2023-08-06T04:31:03;1.90;;;1.80;;
29030;SDS011;16122;50.236;11.734;2023-08-06T04:33:32;1.80;;;1.70;;
29030;SDS011;16122;50.236;11.734;2023-08-06T04:36:01;2.10;;;2.00;;
29030;SDS011;16122;50.236;11.734;2023-08-06T04:38:27;1.60;;;1.50;;
29030;SDS011;16122;50.236;11.734;2023-08-06T04:40:54;1.80;;;1.70;;
29030;SDS011;16122;50.236;11.734;2023-08-06T04:43:21;1.63;;;1.50;;
29030;SDS011;16122;50.236;11.734;2023-08-06T04:45:49;1.80;;;1.70;;
29030;SDS011;16122;50.236;11.734;2023-08-06T04:48:15;1.83;;;1.73;;
29030;SDS011;16122;50.236;11.734;2023-08-06T04:50:48;1.70;;;1.60;;
29030;SDS011;16122;50.236;11.734;2023-08-06T04:53:15;1.40;;;1.30;;
29030;SDS011;16122;50.236;11.734;2023-08-06T04:55:40;1.77;;;1.67;;
29030;SDS011;16122;50.236;11.734;2023-08-06T04:58:09;2.23;;;2.00;;
29030;SDS011;16122;50.236;11.734;2023-08-06T05:00:35;1.70;;;1.60;;
29030;SDS011;16122;50.236;11.734;2023-08-06T05:03:01;1.30;;;1.30;;
29030;SDS011;16122;50.236;11.734;2023-08-06T05:05:27;1.87;;;1.77;;
29030;SDS011;16122;50.236;11.734;2023-08-06T05:07:54;1.97;;;1.50;;
29030;SDS011;16122;50.236;11.734;2023-08-06T05:10:24;2.00;;;1.70;;
29030;SDS011;16122;50.236;11.734;2023-08-06T05:12:51;1.67;;;1.57;;
29030;SDS011;16122;50.236;11.734;2023-08-06T05:15:17;2.17;;;2.07;;
29030;SDS011;16122;50.236;11.734;2023-08-06T05:17:43;2.20;;;1.80;;
29030;SDS011;16122;50.236;11.734;2023-08-06T05:20:09;2.03;;;1.90;;
29030;SDS011;16122;50.236;11.734;2023-08-06T05:22:35;4.67;;;2.00;;
29030;SDS011;16122;50.236;11.734;2023-08-06T05:25:01;2.17;;;2.00;;
29030;SDS011;16122;50.236;11.734;2023-08-06T05:27:27;3.90;;;1.60;;
29030;SDS011;16122;50.236;11.734;2023-08-06T05:29:54;2.03;;;1.90;;
29030;SDS011;16122;50.236;11.734;2023-08-06T05:32:24;1.60;;;1.50;;
29030;SDS011;16122;50.236;11.734;2023-08-06T05:34:49;2.13;;;1.90;;
29030;SDS011;16122;50.236;11.734;2023-08-06T05:37:15;2.67;;;1.57;;
29030;SDS011;16122;50.236;11.734;2023-08-06T05:39:41;2.70;;;1.70;;
29030;SDS011;16122;50.236;11.734;2023-08-06T05:42:07;1.73;;;1.63;;
29030;SDS011;16122;50.236;11.734;2023-08-06T05:44:33;1.60;;;1.50;;
29030;SDS011;16122;50.236;11.734;2023-08-06T05:46:59;1.63;;;1.53;;
29030;SDS011;16122;50.236;11.734;2023-08-06T05:49:24;3.17;;;1.53;;
29030;SDS011;16122;50.236;11.734;2023-08-06T05:51:50;2.17;;;1.87;;
29030;SDS011;16122;50.236;11.734;2023-08-06T05:54:18;1.83;;;1.53;;
29030;SDS011;16122;50.236;11.734;2023-08-06T05:56:44;1.67;;;1.47;;
29030;SDS011;16122;50.236;11.734;2023-08-06T05:59:10;1.83;;;1.73;;
29030;SDS011;16122;50.236;11.734;2023-08-06T06:01:36;2.43;;;1.87;;
29030;SDS011;16122;50.236;11.734;2023-08-06T06:04:02;1.33;;;1.20;;
29030;SDS011;16122;50.236;11.734;2023-08-06T06:06:28;1.73;;;1.40;;
29030;SDS011;16122;50.236;11.734;2023-08-06T06:08:53;2.00;;;1.80;;
29030;SDS011;16122;50.236;11.734;2023-08-06T06:11:19;2.63;;;1.70;;
29030;SDS011;16122;50.236;11.734;2023-08-06T06:13:48;1.57;;;1.47;;
29030;SDS011;16122;50.236;11.734;2023-08-06T06:16:16;1.60;;;1.50;;
29030;SDS011;16122;50.236;11.734;2023-08-06T06:18:42;1.70;;;1.60;;
29030;SDS011;16122;50.236;11.734;2023-08-06T06:21:08;4.03;;;1.60;;
29030;SDS011;16122;50.236;11.734;2023-08-06T06:23:35;3.37;;;1.73;;
29030;SDS011;16122;50.236;11.734;2023-08-06T06:26:00;2.43;;;1.50;;
29030;SDS011;16122;50.236;11.734;2023-08-06T06:28:26;1.57;;;1.47;;
29030;SDS011;16122;50.236;11.734;2023-08-06T06:30:52;1.97;;;1.67;;
29030;SDS011;16122;50.236;11.734;2023-08-06T06:33:18;1.70;;;1.60;;
29030;SDS011;16122;50.236;11.734;2023-08-06T06:35:43;2.20;;;1.53;;
29030;SDS011;16122;50.236;11.734;2023-08-06T06:38:09;2.83;;;1.57;;
29030;SDS011;16122;50.236;11.734;2023-08-06T06:40:35;1.70;;;1.60;;
29030;SDS011;16122;50.236;11.734;2023-08-06T06:43:01;2.30;;;1.30;;
29030;SDS011;16122;50.236;11.734;2023-08-06T06:45:27;1.47;;;1.37;;
29030;SDS011;16122;50.236;11.734;2023-08-06T06:47:52;2.83;;;1.63;;
29030;SDS011;16122;50.236;11.734;2023-08-06T06:50:18;7.50;;;1.33;;
29030;SDS011;16122;50.236;11.734;2023-08-06T06:52:44;2.47;;;1.43;;
29030;SDS011;16122;50.236;11.734;2023-08-06T06:55:10;1.63;;;1.30;;
29030;SDS011;16122;50.236;11.734;2023-08-06T06:57:36;1.53;;;1.43;;
29030;SDS011;16122;50.236;11.734;2023-08-06T07:00:01;1.53;;;1.43;;
29030;SDS011;16122;50.236;11.734;2023-08-06T07:02:28;7.30;;;1.40;;
29030;SDS011;16122;50.236;11.734;2023-08-06T07:04:54;2.10;;;1.53;;
29030;SDS011;16122;50.236;11.734;2023-08-06T07:07:20;1.40;;;1.30;;
29030;SDS011;16122;50.236;11.734;2023-08-06T07:09:46;1.57;;;1.43;;
29030;SDS011;16122;50.236;11.734;2023-08-06T07:12:11;3.57;;;1.70;;
29030;SDS011;16122;50.236;11.734;2023-08-06T07:14:37;1.40;;;1.30;;
29030;SDS011;16122;50.236;11.734;2023-08-06T07:17:04;2.30;;;1.37;;
29030;SDS011;16122;50.236;11.734;2023-08-06T07:19:30;3.53;;;1.90;;
29030;SDS011;16122;50.236;11.734;2023-08-06T07:21:56;1.80;;;1.70;;
29030;SDS011;16122;50.236;11.734;2023-08-06T07:24:22;1.90;;;1.50;;
29030;SDS011;16122;50.236;11.734;2023-08-06T07:26:48;3.33;;;1.60;;
29030;SDS011;16122;50.236;11.734;2023-08-06T07:29:14;2.40;;;1.63;;
29030;SDS011;16122;50.236;11.734;2023-08-06T07:31:45;7.90;;;2.13;;
29030;SDS011;16122;50.236;11.734;2023-08-06T07:34:11;1.50;;;1.40;;
29030;SDS011;16122;50.236;11.734;2023-08-06T07:36:37;2.00;;;1.80;;
29030;SDS011;16122;50.236;11.734;2023-08-06T07:39:03;5.03;;;2.13;;
29030;SDS011;16122;50.236;11.734;2023-08-06T07:41:31;4.50;;;1.67;;
29030;SDS011;16122;50.236;11.734;2023-08-06T07:43:57;6.70;;;2.53;;
29030;SDS011;16122;50.236;11.734;2023-08-06T07:46:23;3.50;;;2.70;;
29030;SDS011;16122;50.236;11.734;2023-08-06T07:48:48;2.50;;;1.80;;
29030;SDS011;16122;50.236;11.734;2023-08-06T07:51:14;4.30;;;1.80;;
29030;SDS011;16122;50.236;11.734;2023-08-06T07:53:40;7.30;;;1.80;;
29030;SDS011;16122;50.236;11.734;2023-08-06T07:56:06;5.23;;;2.07;;
29030;SDS011;16122;50.236;11.734;2023-08-06T07:58:32;9.00;;;2.20;;
29030;SDS011;16122;50.236;11.734;2023-08-06T08:00:58;4.17;;;1.70;;
29030;SDS011;16122;50.236;11.734;2023-08-06T08:03:23;4.50;;;2.20;;
29030;SDS011;16122;50.236;11.734;2023-08-06T08:05:49;2.03;;;1.50;;
29030;SDS011;16122;50.236;11.734;2023-08-06T08:08:17;5.40;;;1.43;;
29030;SDS011;16122;50.236;11.734;2023-08-06T08:10:43;4.07;;;2.00;;
29030;SDS011;16122;50.236;11.734;2023-08-06T08:13:08;5.40;;;2.33;;
29030;SDS011;16122;50.236;11.734;2023-08-06T08:15:35;5.40;;;2.03;;
29030;SDS011;16122;50.236;11.734;2023-08-06T08:18:01;1.70;;;1.60;;
29030;SDS011;16122;50.236;11.734;2023-08-06T08:20:27;3.23;;;1.90;;
29030;SDS011;16122;50.236;11.734;2023-08-06T08:23:00;5.27;;;2.03;;
29030;SDS011;16122;50.236;11.734;2023-08-06T08:25:26;4.37;;;1.90;;
29030;SDS011;16122;50.236;11.734;2023-08-06T08:27:53;3.07;;;1.80;;
29030;SDS011;16122;50.236;11.734;2023-08-06T08:30:19;15.27;;;2.17;;
29030;SDS011;16122;50.236;11.734;2023-08-06T08:32:46;3.80;;;2.30;;
29030;SDS011;16122;50.236;11.734;2023-08-06T08:35:12;5.00;;;2.20;;
29030;SDS011;16122;50.236;11.734;2023-08-06T08:37:39;3.90;;;1.90;;
29030;SDS011;16122;50.236;11.734;2023-08-06T08:40:05;5.73;;;2.10;;
29030;SDS011;16122;50.236;11.734;2023-08-06T08:42:32;3.53;;;2.20;;
29030;SDS011;16122;50.236;11.734;2023-08-06T08:44:58;3.20;;;1.90;;
29030;SDS011;16122;50.236;11.734;2023-08-06T08:47:24;2.17;;;1.57;;
29030;SDS011;16122;50.236;11.734;2023-08-06T08:49:52;4.13;;;1.63;;
29030;SDS011;16122;50.236;11.734;2023-08-06T08:52:22;2.07;;;1.80;;
29030;SDS011;16122;50.236;11.734;2023-08-06T08:54:50;1.97;;;1.87;;
29030;SDS011;16122;50.236;11.734;2023-08-06T08:57:18;6.47;;;2.03;;
29030;SDS011;16122;50.236;11.734;2023-08-06T08:59:45;3.93;;;2.20;;
29030;SDS011;16122;50.236;11.734;2023-08-06T09:02:12;1.80;;;1.43;;
29030;SDS011;16122;50.236;11.734;2023-08-06T09:04:40;4.10;;;2.10;;
29030;SDS011;16122;50.236;11.734;2023-08-06T09:07:07;4.50;;;2.20;;
29030;SDS011;16122;50.236;11.734;2023-08-06T09:09:36;2.30;;;1.80;;
29030;SDS011;16122;50.236;11.734;2023-08-06T09:12:11;3.33;;;1.90;;
29030;SDS011;16122;50.236;11.734;2023-08-06T09:14:39;3.00;;;1.83;;
29030;SDS011;16122;50.236;11.734;2023-08-06T09:17:05;3.00;;;1.70;;
29030;SDS011;16122;50.236;11.734;2023-08-06T09:19:32;2.77;;;1.70;;
29030;SDS011;16122;50.236;11.734;2023-08-06T09:21:58;4.30;;;2.10;;
29030;SDS011;16122;50.236;11.734;2023-08-06T09:24:24;3.50;;;2.17;;
29030;SDS011;16122;50.236;11.734;2023-08-06T09:26:51;2.23;;;1.60;;
29030;SDS011;16122;50.236;11.734;2023-08-06T09:29:18;1.90;;;1.63;;
29030;SDS011;16122;50.236;11.734;2023-08-06T09:31:44;2.40;;;2.20;;
29030;SDS011;16122;50.236;11.734;2023-08-06T09:36:51;4.47;;;2.00;;
29030;SDS011;16122;50.236;11.734;2023-08-06T09:39:19;2.10;;;1.90;;
29030;SDS011;16122;50.236;11.734;2023-08-06T09:41:47;1.70;;;1.60;;
29030;SDS011;16122;50.236;11.734;2023-08-06T09:44:17;2.30;;;1.60;;
29030;SDS011;16122;50.236;11.734;2023-08-06T09:46:48;2.30;;;2.07;;
29030;SDS011;16122;50.236;11.734;2023-08-06T09:49:15;5.27;;;1.53;;
29030;SDS011;16122;50.236;11.734;2023-08-06T09:51:44;2.00;;;1.80;;
29030;SDS011;16122;50.236;11.734;2023-08-06T09:54:15;2.03;;;1.60;;
29030;SDS011;16122;50.236;11.734;2023-08-06T09:56:42;2.10;;;1.90;;
29030;SDS011;16122;50.236;11.734;2023-08-06T09:59:08;2.07;;;1.57;;
29030;SDS011;16122;50.236;11.734;2023-08-06T10:01:36;3.33;;;1.50;;
29030;SDS011;16122;50.236;11.734;2023-08-06T10:04:03;2.07;;;1.40;;
29030;SDS011;16122;50.236;11.734;2023-08-06T10:06:32;2.70;;;1.40;;
29030;SDS011;16122;50.236;11.734;2023-08-06T10:09:00;3.43;;;1.20;;
29030;SDS011;16122;50.236;11.734;2023-08-06T10:11:26;2.03;;;1.67;;
29030;SDS011;16122;50.236;11.734;2023-08-06T10:13:55;2.47;;;1.40;;
29030;SDS011;16122;50.236;11.734;2023-08-06T10:16:28;2.37;;;1.30;;
29030;SDS011;16122;50.236;11.734;2023-08-06T10:18:55;1.43;;;1.33;;
29030;SDS011;16122;50.236;11.734;2023-08-06T10:21:25;2.83;;;2.20;;
29030;SDS011;16122;50.236;11.734;2023-08-06T10:23:53;5.00;;;1.90;;
29030;SDS011;16122;50.236;11.734;2023-08-06T10:26:20;3.20;;;1.50;;
29030;SDS011;16122;50.236;11.734;2023-08-06T10:28:46;6.17;;;1.80;;
29030;SDS011;16122;50.236;11.734;2023-08-06T10:31:11;3.20;;;2.33;;
29030;SDS011;16122;50.236;11.734;2023-08-06T10:33:41;6.30;;;2.13;;
29030;SDS011;16122;50.236;11.734;2023-08-06T10:36:08;2.37;;;1.93;;
29030;SDS011;16122;50.236;11.734;2023-08-06T10:38:35;2.23;;;1.73;;
29030;SDS011;16122;50.236;11.734;2023-08-06T10:41:31;4.63;;;2.27;;
29030;SDS011;16122;50.236;11.734;2023-08-06T10:44:10;3.23;;;2.43;;
29030;SDS011;16122;50.236;11.734;2023-08-06T10:46:37;2.00;;;1.80;;
29030;SDS011;16122;50.236;11.734;2023-08-06T10:49:03;6.77;;;1.90;;
29030;SDS011;16122;50.236;11.734;2023-08-06T10:51:29;2.93;;;1.80;;
29030;SDS011;16122;50.236;11.734;2023-08-06T10:53:55;2.90;;;1.50;;
29030;SDS011;16122;50.236;11.734;2023-08-06T10:56:23;3.27;;;1.73;;
29030;SDS011;16122;50.236;11.734;2023-08-06T10:58:53;4.53;;;2.07;;
29030;SDS011;16122;50.236;11.734;2023-08-06T11:01:21;5.60;;;2.23;;
29030;SDS011;16122;50.236;11.734;2023-08-06T11:03:54;4.60;;;1.80;;
29030;SDS011;16122;50.236;11.734;2023-08-06T11:06:21;4.47;;;1.50;;
29030;SDS011;16122;50.236;11.734;2023-08-06T11:08:54;2.50;;;1.60;;
29030;SDS011;16122;50.236;11.734;2023-08-06T11:11:20;2.50;;;1.57;;
29030;SDS011;16122;50.236;11.734;2023-08-06T11:13:48;3.67;;;2.13;;
29030;SDS011;16122;50.236;11.734;2023-08-06T11:16:18;3.07;;;1.50;;
29030;SDS011;16122;50.236;11.734;2023-08-06T11:18:45;3.13;;;1.50;;
29030;SDS011;16122;50.236;11.734;2023-08-06T11:21:12;1.47;;;1.30;;
29030;SDS011;16122;50.236;11.734;2023-08-06T11:23:38;4.27;;;1.63;;
29030;SDS011;16122;50.236;11.734;2023-08-06T11:26:05;3.73;;;1.57;;
29030;SDS011;16122;50.236;11.734;2023-08-06T11:28:32;8.30;;;2.20;;
29030;SDS011;16122;50.236;11.734;2023-08-06T11:30:58;1.80;;;1.40;;
29030;SDS011;16122;50.236;11.734;2023-08-06T11:33:27;2.07;;;1.40;;
29030;SDS011;16122;50.236;11.734;2023-08-06T11:35:57;1.50;;;1.40;;
29030;SDS011;16122;50.236;11.734;2023-08-06T11:38:25;2.90;;;1.40;;
29030;SDS011;16122;50.236;11.734;2023-08-06T11:40:52;1.93;;;1.60;;
29030;SDS011;16122;50.236;11.734;2023-08-06T11:43:19;2.80;;;1.77;;
29030;SDS011;16122;50.236;11.734;2023-08-06T11:45:51;6.10;;;1.40;;
29030;SDS011;16122;50.236;11.734;2023-08-06T11:48:20;4.13;;;2.00;;
29030;SDS011;16122;50.236;11.734;2023-08-06T11:50:46;4.97;;;1.90;;
29030;SDS011;16122;50.236;11.734;2023-08-06T11:53:12;2.93;;;1.53;;
29030;SDS011;16122;50.236;11.734;2023-08-06T11:55:39;1.67;;;1.57;;
29030;SDS011;16122;50.236;11.734;2023-08-06T11:58:05;2.60;;;1.60;;
29030;SDS011;16122;50.236;11.734;2023-08-06T12:00:31;2.30;;;1.50;;
29030;SDS011;16122;50.236;11.734;2023-08-06T12:02:57;3.77;;;1.63;;
29030;SDS011;16122;50.236;11.734;2023-08-06T12:05:28;2.67;;;1.43;;
29030;SDS011;16122;50.236;11.734;2023-08-06T12:07:56;3.80;;;1.80;;
29030;SDS011;16122;50.236;11.734;2023-08-06T12:10:24;4.20;;;2.07;;
29030;SDS011;16122;50.236;11.734;2023-08-06T12:12:50;2.63;;;1.63;;
29030;SDS011;16122;50.236;11.734;2023-08-06T12:15:16;4.97;;;2.10;;
29030;SDS011;16122;50.236;11.734;2023-08-06T12:17:43;6.83;;;1.90;;
29030;SDS011;16122;50.236;11.734;2023-08-06T12:20:09;6.00;;;2.20;;
29030;SDS011;16122;50.236;11.734;2023-08-06T12:22:35;5.50;;;2.43;;
29030;SDS011;16122;50.236;11.734;2023-08-06T12:25:03;4.70;;;1.87;;
29030;SDS011;16122;50.236;11.734;2023-08-06T12:27:34;4.70;;;1.77;;
29030;SDS011;16122;50.236;11.734;2023-08-06T12:30:00;8.83;;;2.37;;
29030;SDS011;16122;50.236;11.734;2023-08-06T12:32:26;7.90;;;2.70;;
29030;SDS011;16122;50.236;11.734;2023-08-06T12:34:52;6.17;;;2.03;;
29030;SDS011;16122;50.236;11.734;2023-08-06T12:37:18;5.33;;;1.90;;
29030;SDS011;16122;50.236;11.734;2023-08-06T12:39:44;9.27;;;3.10;;
29030;SDS011;16122;50.236;11.734;2023-08-06T12:42:09;15.43;;;4.00;;
29030;SDS011;16122;50.236;11.734;2023-08-06T12:44:35;11.17;;;3.90;;
29030;SDS011;16122;50.236;11.734;2023-08-06T12:47:01;10.30;;;3.47;;
29030;SDS011;16122;50.236;11.734;2023-08-06T12:49:27;11.17;;;3.90;;
29030;SDS011;16122;50.236;11.734;2023-08-06T12:51:54;10.40;;;3.37;;
29030;SDS011;16122;50.236;11.734;2023-08-06T12:54:22;11.17;;;3.63;;
29030;SDS011;16122;50.236;11.734;2023-08-06T12:56:48;11.67;;;3.07;;
29030;SDS011;16122;50.236;11.734;2023-08-06T12:59:14;12.23;;;3.10;;
29030;SDS011;16122;50.236;11.734;2023-08-06T13:01:42;9.80;;;3.80;;
29030;SDS011;16122;50.236;11.734;2023-08-06T13:04:08;12.07;;;3.80;;
29030;SDS011;16122;50.236;11.734;2023-08-06T13:06:34;12.73;;;3.00;;
29030;SDS011;16122;50.236;11.734;2023-08-06T13:09:04;11.13;;;3.60;;
29030;SDS011;16122;50.236;11.734;2023-08-06T13:11:31;9.03;;;3.33;;
29030;SDS011;16122;50.236;11.734;2023-08-06T13:14:01;10.97;;;3.43;;
29030;SDS011;16122;50.236;11.734;2023-08-06T13:16:30;11.27;;;3.33;;
29030;SDS011;16122;50.236;11.734;2023-08-06T13:18:56;12.27;;;3.30;;
29030;SDS011;16122;50.236;11.734;2023-08-06T13:21:22;10.33;;;3.33;;
29030;SDS011;16122;50.236;11.734;2023-08-06T13:23:48;10.20;;;3.03;;
29030;SDS011;16122;50.236;11.734;2023-08-06T13:26:14;9.47;;;2.67;;
29030;SDS011;16122;50.236;11.734;2023-08-06T13:28:41;8.27;;;2.83;;
29030;SDS011;16122;50.236;11.734;2023-08-06T13:31:07;9.70;;;2.93;;
29030;SDS011;16122;50.236;11.734;2023-08-06T13:33:33;8.37;;;2.60;;
29030;SDS011;16122;50.236;11.734;2023-08-06T13:35:59;8.50;;;3.30;;
29030;SDS011;16122;50.236;11.734;2023-08-06T13:38:24;8.27;;;3.00;;
29030;SDS011;16122;50.236;11.734;2023-08-06T13:40:50;9.70;;;2.97;;
29030;SDS011;16122;50.236;11.734;2023-08-06T13:43:16;11.13;;;2.80;;
29030;SDS011;16122;50.236;11.734;2023-08-06T13:45:44;6.87;;;2.63;;
29030;SDS011;16122;50.236;11.734;2023-08-06T13:48:10;5.23;;;2.43;;
29030;SDS011;16122;50.236;11.734;2023-08-06T13:50:36;9.80;;;2.80;;
29030;SDS011;16122;50.236;11.734;2023-08-06T13:53:02;7.27;;;3.23;;
29030;SDS011;16122;50.236;11.734;2023-08-06T13:55:28;4.67;;;2.47;;
29030;SDS011;16122;50.236;11.734;2023-08-06T13:57:55;11.60;;;3.10;;
29030;SDS011;16122;50.236;11.734;2023-08-06T14:00:21;7.23;;;2.30;;
29030;SDS011;16122;50.236;11.734;2023-08-06T14:02:47;4.60;;;2.13;;
29030;SDS011;16122;50.236;11.734;2023-08-06T14:05:12;7.10;;;2.40;;
29030;SDS011;16122;50.236;11.734;2023-08-06T14:07:38;5.03;;;2.70;;
29030;SDS011;16122;50.236;11.734;2023-08-06T14:10:04;6.60;;;2.30;;
29030;SDS011;16122;50.236;11.734;2023-08-06T14:12:31;7.23;;;2.23;;
29030;SDS011;16122;50.236;11.734;2023-08-06T14:14:56;8.13;;;3.03;;
29030;SDS011;16122;50.236;11.734;2023-08-06T14:17:22;5.40;;;2.60;;
29030;SDS011;16122;50.236;11.734;2023-08-06T14:19:48;6.67;;;2.43;;
29030;SDS011;16122;50.236;11.734;2023-08-06T14:22:14;5.97;;;2.80;;
29030;SDS011;16122;50.236;11.734;2023-08-06T14:24:40;5.90;;;2.60;;
29030;SDS011;16122;50.236;11.734;2023-08-06T14:27:07;4.23;;;1.90;;
29030;SDS011;16122;50.236;11.734;2023-08-06T14:29:32;5.00;;;2.00;;
29030;SDS011;16122;50.236;11.734;2023-08-06T14:31:58;5.10;;;1.90;;
29030;SDS011;16122;50.236;11.734;2023-08-06T14:34:24;6.80;;;1.80;;
29030;SDS011;16122;50.236;11.734;2023-08-06T14:36:50;7.80;;;2.47;;
29030;SDS011;16122;50.236;11.734;2023-08-06T14:39:15;5.93;;;2.50;;